Flight Track Log - Related Links

Times and Time Zones

All times are in EST time to prevent confusion due to time zone crossing. See the N479PF flight status page for this flight to view local times or setup timezone preferences in your user account.

Time Position Orientation Groundspeed Altitude Reporting Facility
EST Latitude Longitude Course Direction KTS MPH feet Rate Location/Type
Thu 05:52:02 PM 40.9000 -74.0500 227° Southwest 176 203 2,600  Level New York TRACON
Thu 05:53:02 PM 40.9000 -74.1333 270° West 255 293 4,800 1,600 Climbing New York TRACON
Thu 05:54:02 PM 40.8333 -74.1333 180° South 251 289 5,800 900 Climbing New York TRACON
Thu 05:55:02 PM 40.7667 -74.1667 201° Southwest 253 291 6,600 2,200 Climbing New York TRACON
Thu 05:56:02 PM 40.7000 -74.1833 191° South 248 285 10,200 3,263 Climbing New York TRACON
Thu 05:56:56 PM 40.6333 -74.1833 180° South 306 352 12,800 2,526 Climbing New York TRACON
Thu 05:57:00 PM 40.2975 -74.3379 227° Southwest  Level Estimated
Thu 05:57:56 PM 40.5333 -74.1667 173° South 371 427 15,000  Level New York TRACON
Thu 05:59:35 PM 40.3508 -74.1653 180° South 394 453 18,400 1,950 Climbing Washington Center
Thu 06:00:36 PM 40.2597 -74.2242 206° Southwest 360 414 20,200 1,934 Climbing Washington Center
Thu 06:01:36 PM 40.1733 -74.3072 216° Southwest 360 414 22,300 1,932 Climbing Washington Center
Thu 06:02:34 PM 40.0844 -74.3903 216° Southwest 383 441 24,000 864 Climbing Washington Center
Thu 06:03:34 PM 39.9958 -74.4731 216° Southwest 395 455 24,000 248 Level Washington Center
Thu 06:04:35 PM 39.9111 -74.5528 216° Southwest 395 455 24,500 1,388 Climbing Washington Center
Thu 06:05:35 PM 39.8408 -74.6161 215° Southwest 395 455 26,800 2,579 Climbing Washington Center
Thu 06:06:36 PM 39.7456 -74.7064 216° Southwest 395 455 29,700 2,926 Climbing Washington Center
Thu 06:07:36 PM 39.6544 -74.7911 216° Southwest 385 443 32,700 2,034 Climbing Washington Center
Thu 06:08:34 PM 39.5800 -74.8564 214° Southwest 373 429 33,700 1,412 Climbing Washington Center
Thu 06:09:35 PM 39.5033 -74.9300 217° Southwest 366 421 35,500 1,736 Climbing Washington Center
Thu 06:10:35 PM 39.4267 -75.0006 215° Southwest 353 406 37,200 1,450 Climbing Washington Center
Thu 06:11:35 PM 39.3478 -75.0708 215° Southwest 353 406 38,400 1,041 Climbing Washington Center
Thu 06:12:36 PM 39.2583 -75.1333 208° Southwest 353 406 39,300 793 Climbing Washington Center
Thu 06:13:36 PM 39.1647 -75.1739 199° South 358 412 40,000 356 Climbing Washington Center
Thu 06:14:34 PM 39.0689 -75.2147 198° South 364 419 40,000  Level Washington Center
Thu 06:15:34 PM 38.9711 -75.2525 197° South 364 419 40,000  Level Washington Center
Thu 06:16:36 PM 38.8775 -75.2931 199° South 364 419 40,000  Level Washington Center
Thu 06:17:36 PM 38.7794 -75.3333 198° South 364 419 40,000  Level Washington Center
Thu 06:18:34 PM 38.6836 -75.3683 196° South 364 419 40,000  Level Washington Center
Thu 06:19:35 PM 38.5919 -75.4111 200° South 364 419 40,000  Level Washington Center
Thu 06:20:35 PM 38.5003 -75.4511 199° South 364 419 40,000  Level Washington Center
Thu 06:21:36 PM 38.4067 -75.4858 196° South 364 419 40,000  Level Washington Center
Thu 06:22:34 PM 38.3233 -75.5414 208° Southwest 351 404 40,000  Level Washington Center
Thu 06:23:36 PM 38.2397 -75.5997 209° Southwest 351 404 40,000  Level Washington Center
Thu 06:24:37 PM 38.1586 -75.6550 208° Southwest 346 398 40,000  Level Washington Center
Thu 06:25:34 PM 38.0772 -75.7158 210° Southwest 341 392 40,000  Level Washington Center
Thu 06:26:34 PM 37.9958 -75.7736 209° Southwest 341 392 40,000  Level Washington Center
Thu 06:27:36 PM 37.9100 -75.8314 208° Southwest 341 392 40,000  Level Washington Center
Thu 06:28:36 PM 37.8267 -75.8914 210° Southwest 341 392 40,000  Level Washington Center
Thu 06:29:36 PM 37.7450 -75.9517 210° Southwest 346 398 40,000  Level Washington Center
Thu 06:30:34 PM 37.6594 -76.0117 209° Southwest 352 405 40,000  Level Washington Center
Thu 06:31:35 PM 37.5736 -76.0714 209° Southwest 357 411 40,000  Level Washington Center
Thu 06:32:35 PM 37.4900 -76.1311 210° Southwest 357 411 40,000  Level Washington Center
Thu 06:33:36 PM 37.4022 -76.1881 207° Southwest 357 411 40,000  Level Washington Center
Thu 06:34:34 PM 37.3161 -76.2500 210° Southwest 357 411 40,000  Level Washington Center
Thu 06:35:35 PM 37.2303 -76.3067 208° Southwest 357 411 40,000  Level Washington Center
Thu 06:36:35 PM 37.1444 -76.3658 209° Southwest 357 411 40,000  Level Washington Center
Thu 06:37:36 PM 37.0606 -76.4272 210° Southwest 357 411 40,000  Level Washington Center
Thu 06:38:34 PM 36.9747 -76.4861 209° Southwest 357 411 40,000  Level Washington Center
Thu 06:39:34 PM 36.8889 -76.5425 208° Southwest 357 411 40,000  Level Washington Center
Thu 06:40:35 PM 36.8028 -76.6036 210° Southwest 357 411 40,000  Level Washington Center
Thu 06:41:36 PM 36.7167 -76.6619 209° Southwest 357 411 40,000  Level Washington Center
Thu 06:42:36 PM 36.6200 -76.7281 209° Southwest 357 411 40,000  Level Washington Center
Thu 06:43:34 PM 36.5339 -76.7861 208° Southwest 357 411 40,000  Level Washington Center
Thu 06:44:34 PM 36.4542 -76.8392 208° Southwest 357 411 40,000  Level Washington Center
Thu 06:45:35 PM 36.3575 -76.9047 209° Southwest 357 411 40,000  Level Washington Center
Thu 06:46:35 PM 36.2692 -76.9653 209° Southwest 357 411 40,000  Level Washington Center
Thu 06:47:37 PM 36.1808 -77.0228 208° Southwest 352 405 40,000  Level Washington Center
Thu 06:48:34 PM 36.0925 -77.0828 209° Southwest 358 412 40,000  Level Washington Center
Thu 06:49:36 PM 36.0231 -77.1278 208° Southwest 358 412 40,000  Level Washington Center
Thu 06:50:36 PM 35.9283 -77.1925 209° Southwest 358 412 40,000  Level Washington Center
Thu 06:51:37 PM 35.8442 -77.2500 209° Southwest 358 412 40,000  Level Washington Center
Thu 06:52:34 PM 35.7578 -77.3069 208° Southwest 358 412 40,000  Level Washington Center
Thu 06:53:35 PM 35.6694 -77.3639 208° Southwest 358 412 40,000  Level Washington Center
Thu 06:54:36 PM 35.5808 -77.4206 207° Southwest 358 412 40,000  Level Washington Center
Thu 06:55:37 PM 35.4944 -77.4772 208° Southwest 358 412 40,000  Level Washington Center
Thu 06:56:34 PM 35.4058 -77.5364 209° Southwest 358 412 40,000  Level Washington Center
Thu 06:57:35 PM 35.3253 -77.6058 215° Southwest 358 412 40,000  Level Washington Center
Thu 06:58:35 PM 35.2511 -77.6853 221° Southwest 358 412 40,000  Level Washington Center
Thu 06:59:37 PM 35.1725 -77.7619 219° Southwest 364 419 40,000  Level Washington Center
Thu 07:00:34 PM 35.0981 -77.8411 221° Southwest 364 419 40,000  Level Washington Center
Thu 07:01:34 PM 35.0214 -77.9203 220° Southwest 364 419 40,000  Level Washington Center
Thu 07:02:35 PM 34.9447 -77.9992 220° Southwest 364 419 40,000  Level Washington Center
Thu 07:04:33 PM 34.7883 -78.1581 220° Southwest 367 422 40,000  Level Jacksonville Center
Thu 07:05:34 PM 34.7122 -78.2406 222° Southwest 367 422 40,000  Level Jacksonville Center
Thu 07:06:34 PM 34.6358 -78.3203 221° Southwest 367 422 40,000  Level Jacksonville Center
Thu 07:07:34 PM 34.5575 -78.3978 219° Southwest 367 422 40,000  Level Jacksonville Center
Thu 07:08:34 PM 34.4767 -78.4775 219° Southwest 367 422 40,000  Level Jacksonville Center
Thu 07:09:34 PM 34.4003 -78.5567 221° Southwest 367 422 40,000  Level Jacksonville Center
Thu 07:10:34 PM 34.3236 -78.6336 220° Southwest 367 422 40,000  Level Jacksonville Center
Thu 07:11:34 PM 34.2450 -78.7128 220° Southwest 367 422 40,000  Level Jacksonville Center
Thu 07:13:34 PM 34.0872 -78.8683 219° Southwest 367 422 40,000  Level Jacksonville Center
Thu 07:14:34 PM 34.0083 -78.9444 219° Southwest 367 422 40,000  Level Jacksonville Center
Thu 07:15:33 PM 33.9314 -79.0231 220° Southwest 367 422 40,000  Level Jacksonville Center
Thu 07:16:34 PM 33.8525 -79.1014 220° Southwest 367 422 40,000  Level Jacksonville Center
Thu 07:17:34 PM 33.7733 -79.1800 220° Southwest 367 422 40,000  Level Jacksonville Center
Thu 07:18:34 PM 33.7003 -79.2503 219° Southwest 367 422 40,000  Level Jacksonville Center
Thu 07:19:34 PM 33.6214 -79.3308 220° Southwest 361 415 40,000  Level Jacksonville Center
Thu 07:20:34 PM 33.5422 -79.4089 219° Southwest 366 421 40,000  Level Jacksonville Center
Thu 07:21:34 PM 33.4628 -79.4867 219° Southwest 371 427 40,000  Level Jacksonville Center
Thu 07:22:33 PM 33.3836 -79.5644 219° Southwest 371 427 40,000  Level Jacksonville Center
Thu 07:23:34 PM 33.3019 -79.6369 217° Southwest 371 427 40,000  Level Jacksonville Center
Thu 07:24:34 PM 33.2161 -79.7047 213° Southwest 371 427 40,000  Level Jacksonville Center
Thu 07:25:34 PM 33.1219 -79.7800 214° Southwest 371 427 40,000  Level Jacksonville Center
Thu 07:26:34 PM 33.0358 -79.8447 212° Southwest 371 427 40,000  Level Jacksonville Center
Thu 07:27:34 PM 32.9497 -79.9147 214° Southwest 371 427 40,000  Level Jacksonville Center
Thu 07:28:34 PM 32.8636 -79.9817 213° Southwest 371 427 40,000  Level Jacksonville Center
Thu 07:29:34 PM 32.7756 -80.0514 214° Southwest 371 427 40,000  Level Jacksonville Center
Thu 07:30:34 PM 32.6894 -80.1206 214° Southwest 371 427 40,000  Level Jacksonville Center
Thu 07:31:34 PM 32.6033 -80.1900 214° Southwest 371 427 40,000  Level Jacksonville Center
Thu 07:32:34 PM 32.5150 -80.2589 213° Southwest 371 427 40,000  Level Jacksonville Center
Thu 07:33:34 PM 32.4267 -80.3281 213° Southwest 376 433 40,000  Level Jacksonville Center
Thu 07:34:34 PM 32.3403 -80.3969 214° Southwest 376 433 40,000  Level Jacksonville Center
Thu 07:35:34 PM 32.2411 -80.4486 204° Southwest 381 438 40,000  Level Jacksonville Center
Thu 07:36:34 PM 32.1417 -80.4906 200° South 388 447 40,000  Level Jacksonville Center
Thu 07:37:34 PM 32.0425 -80.5397 203° Southwest 388 447 40,000  Level Jacksonville Center
Thu 07:38:34 PM 31.9408 -80.5839 200° South 393 452 40,000  Level Jacksonville Center
Thu 07:39:34 PM 31.8497 -80.6228 200° South 388 447 40,000  Level Jacksonville Center
Thu 07:40:34 PM 31.7400 -80.6744 202° Southwest 388 447 40,000  Level Jacksonville Center
Thu 07:41:34 PM 31.6364 -80.7183 200° South 393 452 40,000  Level Jacksonville Center
Thu 07:42:34 PM 31.5328 -80.7647 201° Southwest 393 452 40,000  Level Jacksonville Center
Thu 07:43:34 PM 31.4333 -80.8083 201° Southwest 393 452 40,000  Level Jacksonville Center
Thu 07:44:34 PM 31.3317 -80.8494 199° South 393 452 40,000  Level Jacksonville Center
Thu 07:45:33 PM 31.2322 -80.8956 202° Southwest 393 452 40,000  Level Jacksonville Center
Thu 07:46:34 PM 31.1306 -80.9414 201° Southwest 388 447 40,000  Level Jacksonville Center
Thu 07:47:34 PM 31.0289 -80.9844 200° South 388 447 40,000  Level Jacksonville Center
Thu 07:48:34 PM 30.9250 -81.0206 197° South 393 452 40,000  Level Jacksonville Center
Thu 07:49:34 PM 30.8103 -81.0253 182° South 398 458 40,000  Level Jacksonville Center
Thu 07:50:34 PM 30.7019 -81.0322 183° South 403 464 40,000  Level Jacksonville Center
Thu 07:51:34 PM 30.6017 -81.0367 182° South 403 464 40,000  Level Jacksonville Center
Thu 07:52:33 PM 30.4892 -81.0436 183° South 403 464 40,000  Level Jacksonville Center
Thu 07:53:34 PM 30.3739 -81.0194 170° South 408 470 40,000  Level Jacksonville Center
Thu 07:54:34 PM 30.2586 -80.9928 169° South 413 475 40,000  Level Jacksonville Center
Thu 07:55:34 PM 30.1456 -80.9686 170° South 413 475 40,000  Level Jacksonville Center
Thu 07:56:34 PM 30.0303 -80.9469 171° South 413 475 40,000  Level Jacksonville Center
Thu 07:57:34 PM 29.9131 -80.9228 170° South 418 481 40,000 -300 Level Jacksonville Center
Thu 07:58:34 PM 29.8000 -80.8989 170° South 418 481 39,400 -600 Descending Jacksonville Center
Thu 07:59:34 PM 29.6847 -80.8772 171° South 418 481 38,800 -619 Descending Jacksonville Center
Thu 08:01:09 PM 29.5033 -80.8375 169° South 420 483 37,800 -619 Descending Miami Center
Thu 08:02:09 PM 29.3725 -80.8183 173° South 425 489 37,200 -650 Descending Miami Center
Thu 08:03:09 PM 29.2522 -80.7925 169° South 431 496 36,500 -600 Descending Miami Center
Thu 08:04:09 PM 29.1319 -80.7669 169° South 437 503 36,000 -250 Descending Miami Center
Thu 08:05:09 PM 29.0158 -80.7439 170° South 437 503 36,000  Level Miami Center
Thu 08:06:09 PM 28.8978 -80.7183 169° South 437 503 36,000  Level Miami Center
Thu 08:07:09 PM 28.7814 -80.6978 171° South 437 503 36,000  Level Miami Center
Thu 08:08:09 PM 28.6719 -80.6583 162° South 442 509 36,000 -900 Level Miami Center
Thu 08:09:09 PM 28.5506 -80.5881 153° Southeast 453 521 34,200 -2,100 Descending Miami Center
Thu 08:10:09 PM 28.4389 -80.5467 162° South 436 502 31,800 -2,400 Descending Miami Center
Thu 08:11:09 PM 28.3233 -80.5050 162° South 436 502 29,400 -2,450 Descending Miami Center
Thu 08:12:09 PM 28.2117 -80.4639 162° South 455 524 26,900 -2,500 Descending Miami Center
Thu 08:13:09 PM 28.0875 -80.4175 162° South 466 536 24,400 -2,750 Descending Miami Center
Thu 08:14:09 PM 27.9592 -80.3711 162° South 447 514 21,400 -2,700 Descending Miami Center
Thu 08:15:09 PM 27.8392 -80.3275 162° South 447 514 19,000 -2,350 Descending Miami Center
Thu 08:16:09 PM 27.7275 -80.2842 161° South 437 503 16,700 -2,350 Descending Miami Center
Thu 08:17:09 PM 27.6281 -80.2508 163° South 418 481 14,300 -2,250 Descending Miami Center
Thu 08:18:09 PM 27.5225 -80.2103 161° South 411 473 12,200 -1,950 Descending Miami Center
Thu 08:19:09 PM 27.4108 -80.1719 163° South 393 452 10,400 -1,100 Descending Miami Center
Thu 08:20:09 PM 27.3092 -80.1386 164° South 388 447 10,000 -200 Descending Miami Center
Thu 08:21:09 PM 27.2031 -80.1239 173° South 382 440 10,000  Level Miami Center
Thu 08:22:09 PM 27.1072 -80.1094 172° South 388 447 10,000  Level Miami Center
Thu 08:23:09 PM 27.0008 -80.1019 176° South 383 441 10,000 -150 Level Miami Center
Thu 08:24:09 PM 26.8986 -80.0967 177° South 354 407 9,700 -850 Descending Miami Center
Thu 08:25:09 PM 26.8194 -80.0922 177° South 305 351 8,300 -1,450 Descending Miami Center
Thu 08:26:09 PM 26.7381 -80.0900 179° South 296 341 6,800 -1,550 Descending Miami Center
Thu 08:27:09 PM 26.6669 -80.0903 180° South 269 310 5,200 -1,595 Descending Miami Center
Thu 08:27:28 PM 26.6419 -80.0942 188° South 256 295 4,700 -1,400 Descending Miami Center
Thu 08:28:09 PM 26.5917 -80.1000 186° South 269 310 3,800 -1,425 Descending Miami Center
Thu 08:28:48 PM 26.5433 -80.1078 188° South 279 321 2,800 -1,080 Descending Miami Center
Thu 08:29:49 PM 26.4722 -80.1197 189° South 233 268 2,000 -414 Descending Miami Center
Thu 08:30:44 PM 26.4197 -80.1300 190° South 205 236 2,000 -261 Level Miami Center
Thu 08:31:44 PM 26.3792 -80.1683 220° Southwest 184 212 1,500 -545 Descending Miami Center
Thu 08:32:45 PM 26.3483 -80.1489 151° Southeast 167 192 900 -590 Descending Miami Center
Thu 08:34:00 PM 26.3667 -80.1000 42° Northeast  Level FlightAware Approximate
Thu 08:41:00 PM 26.3785 -80.1077 42° Northeast  Level Estimated
Thu 08:42:00 PM 26.3785 -80.1077 42° Northeast  Level Estimated

Login

Don't have an account? Register now (free) for customized features, flight alerts, and more!